This is the latest recevied weather packets stored in our database for station/object VA7NEZ. If no packets are shown the sender has not sent any weather packets the latest 1 day(s).
| Time | Temp. | Humidity | Pressure | Rain* | Wind** | Luminosity | Snow |
|---|---|---|---|---|---|---|---|
| 1778092067 | 20.56° C | 37% | 1011.4 hPa | 0 mm | - | - | - |
| 1778091088 | 20° C | 39% | 1011.5 hPa | 0 mm | - | - | - |
| 1778087492 | 17.78° C | 42% | 1012.1 hPa | 0 mm | - | - | - |
| 1778086956 | 17.22° C | 44% | 1012.1 hPa | 0 mm | - | - | - |
| 1778084777 | 16.11° C | 53% | 1012.5 hPa | 0 mm | - | - | - |
| 1778080332 | 14.44° C | 56% | 1013.3 hPa | 0 mm | - | - | - |
| 1778079253 | 13.33° C | 58% | 1013.4 hPa | 0 mm | - | - | - |
| 1778072812 | 8.89° C | 70% | 1013.1 hPa | 0 mm | - | - | - |
| 1778070057 | 8.89° C | 66% | 1012.9 hPa | 0 mm | - | - | - |
| 1778067977 | 9.44° C | 63% | 1012.5 hPa | 0 mm | - | - | - |
| 1778066432 | 0° C | 100% | 1012.3 hPa | 0 mm | - | - | - |
| 1778065283 | 10° C | 64% | 1012.2 hPa | 0 mm | - | - | - |
| 1778064714 | 10° C | 62% | 1012 hPa | 0 mm | - | - | - |
| 1778063597 | 10° C | 61% | 1011.9 hPa | 0 mm | - | - | - |
| 1778061367 | 10.56° C | 60% | 1011.7 hPa | 0 mm | - | - | - |
| 1778058727 | 11.11° C | 56% | 1011.7 hPa | 0 mm | - | - | - |
| 1778057742 | 11.67° C | 55% | 1011.8 hPa | 0 mm | - | - | - |
| 1778057262 | 11.67° C | 55% | 1011.7 hPa | 0 mm | - | - | - |
| 1778056187 | 12.22° C | 53% | 1011.5 hPa | 0 mm | - | - | - |
| 1778054635 | 12.78° C | 53% | 1011.5 hPa | 0 mm | - | - | - |
| 1778054092 | 0° C | 100% | 1011.5 hPa | 0 mm | - | - | - |
| 1778052957 | 12.78° C | 55% | 1011.4 hPa | 0 mm | - | - | - |
| 1778051812 | 13.33° C | 52% | 1011.4 hPa | 0 mm | - | - | - |
| 1778050707 | 13.89° C | 57% | 1011.2 hPa | 0 mm | - | - | - |
| 1778050146 | 13.89° C | 54% | 1011.3 hPa | 0 mm | - | - | - |
* Rain latest hour (hover to see other rain measurements)
** Current wind speed in m/s (hover to see current wind gust speed)